createdAt,value
2018-03-28T00:00:59.158Z,37.03
2018-03-28T00:03:29.129Z,34.63
2018-03-28T00:05:59.672Z,31.53
2018-03-28T00:08:30.667Z,32.40
2018-03-28T00:11:01.641Z,32.87
2018-03-28T00:13:32.221Z,29.37
2018-03-28T00:16:03.041Z,30.63
2018-03-28T00:18:33.614Z,29.67
2018-03-28T00:21:04.764Z,30.23
2018-03-28T00:23:35.006Z,35.00
2018-03-28T00:26:05.344Z,31.93
2018-03-28T00:28:36.070Z,30.27
2018-03-28T00:31:06.480Z,32.57
2018-03-28T00:33:36.828Z,31.67
2018-03-28T00:36:07.453Z,28.07
2018-03-28T00:38:38.170Z,31.20
2018-03-28T00:41:08.819Z,28.27
2018-03-28T00:43:39.620Z,30.87
2018-03-28T00:46:10.701Z,26.97
2018-03-28T00:48:41.630Z,26.17
2018-03-28T00:51:23.750Z,28.73
2018-03-28T00:53:54.323Z,24.50
2018-03-28T00:56:24.697Z,27.33
2018-03-28T00:58:55.415Z,26.53
2018-03-28T01:01:26.635Z,29.07
2018-03-28T01:03:57.069Z,30.47
2018-03-28T01:06:27.422Z,28.23
2018-03-28T01:08:58.335Z,25.53
2018-03-28T01:11:28.912Z,28.93
2018-03-28T01:14:00.127Z,28.37
2018-03-28T01:16:30.868Z,30.27
2018-03-28T01:19:00.892Z,32.60
2018-03-28T01:21:31.406Z,28.27
2018-03-28T01:24:02.044Z,28.07
2018-03-28T01:26:32.171Z,28.90
2018-03-28T01:29:03.031Z,29.67
2018-03-28T01:31:33.842Z,27.50
2018-03-28T01:34:04.268Z,27.47
2018-03-28T01:36:34.975Z,26.63
2018-03-28T01:39:06.134Z,31.57
2018-03-28T01:41:36.583Z,26.23
2018-03-28T01:44:07.213Z,24.97
2018-03-28T01:46:37.013Z,25.97
2018-03-28T01:49:07.643Z,26.83
2018-03-28T01:51:38.252Z,23.27
2018-03-28T01:54:08.877Z,26.07
2018-03-28T01:56:39.442Z,26.93
2018-03-28T01:59:10.350Z,30.13
2018-03-28T02:01:40.903Z,31.63
2018-03-28T02:04:11.717Z,30.87
2018-03-28T02:06:42.682Z,33.67
2018-03-28T02:09:13.515Z,27.27
2018-03-28T02:11:44.211Z,27.37
2018-03-28T02:14:14.983Z,32.13
2018-03-28T02:16:45.763Z,28.37
2018-03-28T02:19:17.085Z,25.87
2018-03-28T02:21:48.005Z,27.43
2018-03-28T02:24:18.594Z,26.00
2018-03-28T02:26:49.366Z,26.40
2018-03-28T02:29:19.845Z,26.43
2018-03-28T02:31:50.687Z,27.60
2018-03-28T02:34:21.888Z,32.03
2018-03-28T02:36:52.727Z,30.80
2018-03-28T02:39:23.156Z,31.87
2018-03-28T02:41:53.684Z,31.80
2018-03-28T02:44:24.449Z,29.73
2018-03-28T02:46:55.057Z,30.57
2018-03-28T02:49:25.628Z,27.80
2018-03-28T02:51:56.232Z,27.03
2018-03-28T02:54:26.792Z,26.20
2018-03-28T02:56:57.900Z,27.27
2018-03-28T02:59:28.730Z,24.27
2018-03-28T03:01:59.217Z,30.93
2018-03-28T03:04:29.502Z,29.83
2018-03-28T03:07:00.451Z,27.07
2018-03-28T03:09:30.932Z,26.93
2018-03-28T03:12:01.393Z,30.27
2018-03-28T03:14:32.258Z,23.93
2018-03-28T03:17:03.016Z,26.63
2018-03-28T03:19:33.718Z,29.77
2018-03-28T03:22:04.301Z,31.87
2018-03-28T03:24:35.144Z,30.10
2018-03-28T03:27:05.960Z,33.00
2018-03-28T03:29:36.499Z,31.60
2018-03-28T03:32:07.003Z,26.63
2018-03-28T03:34:37.646Z,28.07
2018-03-28T03:37:08.829Z,28.97
2018-03-28T03:39:39.038Z,25.50
2018-03-28T03:42:09.864Z,28.07
2018-03-28T03:44:40.294Z,29.53
2018-03-28T03:47:10.475Z,30.80
2018-03-28T03:49:40.904Z,32.20
2018-03-28T03:52:11.664Z,25.23
2018-03-28T03:54:42.401Z,28.03
2018-03-28T03:57:13.386Z,26.10
2018-03-28T03:59:43.734Z,30.40
2018-03-28T04:02:14.280Z,31.13
2018-03-28T04:04:44.422Z,28.80
2018-03-28T04:07:15.780Z,33.40
2018-03-28T04:09:46.364Z,33.80
2018-03-28T04:12:16.332Z,34.87
2018-03-28T04:14:46.863Z,33.20
2018-03-28T04:17:17.441Z,31.60
2018-03-28T04:19:48.614Z,34.13
2018-03-28T04:22:19.290Z,37.00
2018-03-28T04:24:49.672Z,33.73
2018-03-28T04:27:20.406Z,40.07
2018-03-28T04:29:51.539Z,37.00
2018-03-28T04:32:22.069Z,39.77
2018-03-28T04:34:53.369Z,40.10
2018-03-28T04:37:23.248Z,41.57
2018-03-28T04:39:53.770Z,36.60
2018-03-28T04:42:24.201Z,36.67
2018-03-28T04:44:55.149Z,46.53
2018-03-28T04:47:25.050Z,42.93
2018-03-28T04:49:56.006Z,48.57
2018-03-28T04:52:26.678Z,47.83
2018-03-28T04:54:57.366Z,66.77
2018-03-28T04:57:28.097Z,46.17
2018-03-28T04:59:58.722Z,44.57
2018-03-28T05:02:28.840Z,56.07
2018-03-28T05:04:59.518Z,45.83
2018-03-28T05:07:30.455Z,48.97
2018-03-28T05:10:01.830Z,46.47
2018-03-28T05:12:32.960Z,49.17
2018-03-28T05:15:04.050Z,50.33
2018-03-28T05:17:35.338Z,57.63
2018-03-28T05:20:05.796Z,58.33
2018-03-28T05:22:36.629Z,65.20
2018-03-28T05:25:07.044Z,66.33
2018-03-28T05:27:38.133Z,70.57
2018-03-28T05:30:08.936Z,69.57
2018-03-28T05:32:40.147Z,65.23
2018-03-28T05:35:11.156Z,60.90
2018-03-28T05:37:41.684Z,58.90
2018-03-28T05:40:12.318Z,61.50
2018-03-28T05:42:42.851Z,60.63
2018-03-28T05:45:12.653Z,66.17
2018-03-28T05:47:42.964Z,62.83
2018-03-28T05:50:13.189Z,66.27
2018-03-28T05:52:43.527Z,75.13
2018-03-28T05:55:13.636Z,80.20
2018-03-28T05:57:44.337Z,84.37
2018-03-28T06:00:15.239Z,82.93
2018-03-28T06:02:45.130Z,68.10
2018-03-28T06:05:16.271Z,64.53
2018-03-28T06:07:46.307Z,73.73
2018-03-28T06:10:16.412Z,70.73
2018-03-28T06:12:46.446Z,69.70
2018-03-28T06:15:16.326Z,69.97
2018-03-28T06:17:46.590Z,61.77
2018-03-28T06:20:16.584Z,70.73
2018-03-28T06:22:46.501Z,73.60
2018-03-28T06:25:16.331Z,78.07
2018-03-28T06:27:46.596Z,69.73
2018-03-28T06:30:16.547Z,61.67
2018-03-28T06:32:46.671Z,67.20
2018-03-28T06:35:16.589Z,62.63
2018-03-28T06:37:46.917Z,62.30
2018-03-28T06:40:16.724Z,66.33
2018-03-28T06:42:46.897Z,61.07
2018-03-28T06:45:16.760Z,61.67
2018-03-28T06:47:47.046Z,67.37
2018-03-28T06:50:16.897Z,60.33
2018-03-28T06:52:47.082Z,61.47
2018-03-28T06:55:18.243Z,63.33
2018-03-28T06:57:48.230Z,58.60
2018-03-28T07:00:18.305Z,64.70
2018-03-28T07:02:48.789Z,54.40
2018-03-28T07:05:18.845Z,61.17
2018-03-28T07:07:49.167Z,58.13
2018-03-28T07:10:20.000Z,64.20
2018-03-28T07:12:50.126Z,64.43
2018-03-28T07:15:19.933Z,59.43
2018-03-28T07:17:50.062Z,60.73
2018-03-28T07:20:20.642Z,60.73
2018-03-28T07:22:50.495Z,61.97
2018-03-28T07:25:20.514Z,62.40
2018-03-28T07:27:50.754Z,65.90
2018-03-28T07:30:21.165Z,66.80
2018-03-28T07:32:51.191Z,68.97
2018-03-28T07:35:21.097Z,57.70
2018-03-28T07:37:51.341Z,64.23
2018-03-28T07:40:21.332Z,57.30
2018-03-28T07:42:51.530Z,52.27
2018-03-28T07:45:21.367Z,57.07
2018-03-28T07:47:51.347Z,55.80
2018-03-28T07:50:21.816Z,48.23
2018-03-28T07:52:52.143Z,61.03
2018-03-28T07:55:21.975Z,62.80
2018-03-28T07:57:52.174Z,61.03
2018-03-28T08:00:22.200Z,57.43
2018-03-28T08:02:52.195Z,59.97
2018-03-28T08:05:22.544Z,62.20
2018-03-28T08:07:52.654Z,60.53
2018-03-28T08:10:22.843Z,64.97
2018-03-28T08:12:53.091Z,62.73
2018-03-28T08:15:22.908Z,62.20
2018-03-28T08:17:53.533Z,57.33
2018-03-28T08:20:23.465Z,53.03
2018-03-28T08:22:53.844Z,45.97
2018-03-28T08:25:23.879Z,54.53
2018-03-28T08:27:54.178Z,47.60
2018-03-28T08:30:24.052Z,49.17
2018-03-28T08:32:54.245Z,45.50
2018-03-28T08:35:24.167Z,40.57
2018-03-28T08:37:54.389Z,36.57
2018-03-28T08:40:24.124Z,38.30
2018-03-28T08:42:53.987Z,41.67
2018-03-28T08:45:23.833Z,42.70
2018-03-28T08:47:54.059Z,39.73
2018-03-28T08:50:24.009Z,48.93
2018-03-28T08:52:54.299Z,42.47
2018-03-28T08:55:24.215Z,42.07
2018-03-28T08:57:55.583Z,44.23
2018-03-28T09:00:26.087Z,41.97
2018-03-28T09:02:56.221Z,42.80
2018-03-28T09:05:27.025Z,37.97
2018-03-28T09:07:56.958Z,43.97
2018-03-28T09:10:26.883Z,42.20
2018-03-28T09:12:56.758Z,37.43
2018-03-28T09:15:26.606Z,42.53
2018-03-28T09:17:56.541Z,45.53
2018-03-28T09:20:26.861Z,48.27
2018-03-28T09:22:57.447Z,48.33
2018-03-28T09:25:27.557Z,46.40
2018-03-28T09:27:58.440Z,44.03
2018-03-28T09:30:28.406Z,44.57
2018-03-28T09:32:58.661Z,45.40
2018-03-28T09:35:28.794Z,42.77
2018-03-28T09:37:58.905Z,47.63
2018-03-28T09:40:29.182Z,45.93
2018-03-28T09:42:59.043Z,42.73
2018-03-28T09:45:28.861Z,43.80
2018-03-28T09:47:59.312Z,51.63
2018-03-28T09:50:29.417Z,48.57
2018-03-28T09:52:59.533Z,49.07
2018-03-28T09:55:29.331Z,46.83
2018-03-28T09:57:59.974Z,48.50
2018-03-28T10:00:29.848Z,45.80
2018-03-28T10:03:06.051Z,45.10
2018-03-28T10:05:39.246Z,48.10
2018-03-28T10:08:09.149Z,48.87
2018-03-28T10:10:40.088Z,48.70
2018-03-28T10:13:10.207Z,43.97
2018-03-28T10:15:40.018Z,48.13
2018-03-28T10:18:10.046Z,47.80
2018-03-28T10:20:40.884Z,49.23
2018-03-28T10:23:10.789Z,49.23
2018-03-28T10:25:41.224Z,50.60
2018-03-28T10:28:11.727Z,50.83
2018-03-28T10:30:43.548Z,48.10
2018-03-28T10:33:14.306Z,49.37
2018-03-28T10:35:45.084Z,49.77
2018-03-28T10:38:14.985Z,53.83
2018-03-28T10:40:45.410Z,47.13
2018-03-28T10:43:15.974Z,44.10
2018-03-28T10:45:46.403Z,49.00
2018-03-28T10:48:17.102Z,46.90
2018-03-28T10:50:47.752Z,48.53
2018-03-28T10:53:18.242Z,48.73
2018-03-28T10:55:49.821Z,45.90
2018-03-28T10:58:20.736Z,48.93
2018-03-28T11:00:52.048Z,45.87
2018-03-28T11:03:22.727Z,44.13
2018-03-28T11:05:53.529Z,50.00
2018-03-28T11:08:24.014Z,46.63
2018-03-28T11:10:54.904Z,45.00
2018-03-28T11:13:25.498Z,43.30
2018-03-28T11:15:56.439Z,42.37
2018-03-28T11:18:27.241Z,42.07
2018-03-28T11:20:58.895Z,40.87
2018-03-28T11:23:29.847Z,41.43
2018-03-28T11:26:00.856Z,39.17
2018-03-28T11:28:32.157Z,49.10
2018-03-28T11:31:02.901Z,40.60
2018-03-28T11:33:33.740Z,38.10
2018-03-28T11:36:04.852Z,41.20
2018-03-28T11:38:34.856Z,39.13
2018-03-28T11:41:05.922Z,36.07
2018-03-28T11:43:37.158Z,34.27
2018-03-28T11:46:08.631Z,35.97
2018-03-28T11:48:39.244Z,31.57
2018-03-28T11:51:09.971Z,31.47
2018-03-28T11:53:40.690Z,33.63
2018-03-28T11:56:11.635Z,32.60
2018-03-28T11:58:42.591Z,30.10
2018-03-28T12:01:13.798Z,33.73
2018-03-28T12:03:44.680Z,31.30
2018-03-28T12:06:15.086Z,29.97
2018-03-28T12:08:45.914Z,32.93
2018-03-28T12:11:16.755Z,35.13
2018-03-28T12:13:47.382Z,31.50
2018-03-28T12:16:17.829Z,33.77
2018-03-28T12:18:48.840Z,38.47
2018-03-28T12:21:19.787Z,35.53
2018-03-28T12:23:50.930Z,36.23
2018-03-28T12:26:21.704Z,35.10
2018-03-28T12:28:51.775Z,32.47
2018-03-28T12:31:22.428Z,34.00
2018-03-28T12:33:52.860Z,36.57
2018-03-28T12:36:23.523Z,34.97
2018-03-28T12:38:54.317Z,34.50
2018-03-28T12:41:25.200Z,35.60
2018-03-28T12:43:55.090Z,31.50
2018-03-28T12:46:26.075Z,29.10
2018-03-28T12:48:56.882Z,30.13
2018-03-28T12:51:27.491Z,28.97
2018-03-28T12:53:57.831Z,31.37
2018-03-28T12:56:28.497Z,27.70
2018-03-28T12:58:59.012Z,26.53
2018-03-28T13:01:29.458Z,26.07
2018-03-28T13:04:00.561Z,25.53
2018-03-28T13:06:31.496Z,36.60
2018-03-28T13:09:01.763Z,24.70
2018-03-28T13:11:31.614Z,22.67
2018-03-28T13:14:01.639Z,22.37
2018-03-28T13:16:32.252Z,23.67
2018-03-28T13:19:02.967Z,27.30
2018-03-28T13:21:33.818Z,27.50
2018-03-28T13:24:04.354Z,28.07
2018-03-28T13:26:34.992Z,28.17
2018-03-28T13:29:05.687Z,23.87
2018-03-28T13:31:37.160Z,22.00
2018-03-28T13:34:07.800Z,23.07
2018-03-28T13:36:39.744Z,18.60
2018-03-28T13:39:10.218Z,19.13
2018-03-28T13:41:40.483Z,19.63
2018-03-28T13:44:10.909Z,21.80
2018-03-28T13:46:42.134Z,20.20
2018-03-28T13:49:12.129Z,20.87
2018-03-28T13:51:43.236Z,20.53
2018-03-28T13:54:13.063Z,22.93
2018-03-28T13:56:43.724Z,22.03
2018-03-28T13:59:14.127Z,19.97
2018-03-28T14:01:44.552Z,21.27
2018-03-28T14:04:14.855Z,20.70
2018-03-28T14:06:45.599Z,22.20
2018-03-28T14:09:16.750Z,22.80
2018-03-28T14:11:47.540Z,21.43
2018-03-28T14:14:17.479Z,19.83
2018-03-28T14:16:47.326Z,21.37
2018-03-28T14:19:18.071Z,20.70
2018-03-28T14:21:48.602Z,24.13
2018-03-28T14:24:18.472Z,22.37
2018-03-28T14:26:49.140Z,21.00
2018-03-28T14:29:19.861Z,25.80
2018-03-28T14:31:49.997Z,23.63
2018-03-28T14:34:21.089Z,21.67
2018-03-28T14:36:51.826Z,22.50
2018-03-28T14:39:22.039Z,21.57
2018-03-28T14:41:53.361Z,18.90
2018-03-28T14:44:24.826Z,21.03
2018-03-28T14:46:55.629Z,22.10
2018-03-28T14:49:26.622Z,26.33
2018-03-28T14:51:57.706Z,18.43
2018-03-28T14:54:29.719Z,21.70
2018-03-28T14:57:01.007Z,21.87
2018-03-28T14:59:31.369Z,19.57
2018-03-28T15:02:03.128Z,19.97
2018-03-28T15:04:34.797Z,21.33
2018-03-28T15:07:05.787Z,19.40
2018-03-28T15:09:37.144Z,21.27
2018-03-28T15:12:08.338Z,21.23
2018-03-28T15:14:39.222Z,20.30
2018-03-28T15:17:10.186Z,19.57
2018-03-28T15:19:40.714Z,22.87
2018-03-28T15:22:11.481Z,20.97
2018-03-28T15:24:42.161Z,20.63
2018-03-28T15:27:12.564Z,24.20
2018-03-28T15:29:42.405Z,21.93
2018-03-28T15:32:13.004Z,20.23
2018-03-28T15:34:43.230Z,19.23
2018-03-28T15:37:14.228Z,18.10
2018-03-28T15:39:44.894Z,18.60
2018-03-28T15:42:15.448Z,16.00
2018-03-28T15:44:46.365Z,15.77
2018-03-28T15:47:17.022Z,15.13
2018-03-28T15:49:48.062Z,13.37
2018-03-28T15:52:18.816Z,12.63
2018-03-28T15:54:49.524Z,11.30
2018-03-28T15:57:20.739Z,13.27
2018-03-28T15:59:51.223Z,13.73
2018-03-28T16:02:22.383Z,14.37
2018-03-28T16:04:52.688Z,14.07
2018-03-28T16:07:23.532Z,13.07
2018-03-28T16:09:54.113Z,13.33
2018-03-28T16:12:24.692Z,12.73
2018-03-28T16:14:55.723Z,13.97
2018-03-28T16:17:26.246Z,15.67
2018-03-28T16:19:57.179Z,12.63
2018-03-28T16:22:26.991Z,11.30
2018-03-28T16:24:57.640Z,11.30
2018-03-28T16:27:28.642Z,12.57
2018-03-28T16:29:58.962Z,11.80
2018-03-28T16:32:29.312Z,16.60
2018-03-28T16:34:59.751Z,15.17
2018-03-28T16:37:30.976Z,16.43
2018-03-28T16:40:02.267Z,16.13
2018-03-28T16:42:33.309Z,18.07
2018-03-28T16:45:04.141Z,16.97
2018-03-28T16:47:34.237Z,16.43
2018-03-28T16:50:04.248Z,18.00
2018-03-28T16:52:34.059Z,18.93
2018-03-28T16:55:04.197Z,18.00
2018-03-28T16:57:34.237Z,16.97
2018-03-28T17:00:04.608Z,18.97
2018-03-28T17:02:35.776Z,20.00
2018-03-28T17:05:05.884Z,21.03
2018-03-28T17:07:35.804Z,22.27
2018-03-28T17:10:06.684Z,21.70
2018-03-28T17:12:36.451Z,19.07
2018-03-28T17:15:06.495Z,18.93
2018-03-28T17:17:36.603Z,20.73
2018-03-28T17:20:06.550Z,22.63
2018-03-28T17:22:36.523Z,21.57
2018-03-28T17:25:06.376Z,21.10
2018-03-28T17:27:36.771Z,21.40
2018-03-28T17:30:06.691Z,20.37
2018-03-28T17:32:36.891Z,20.97
2018-03-28T17:35:06.830Z,18.47
2018-03-28T17:37:36.731Z,19.27
2018-03-28T17:40:06.541Z,19.17
2018-03-28T17:42:36.359Z,19.47
2018-03-28T17:45:06.521Z,20.57
2018-03-28T17:47:36.472Z,18.80
2018-03-28T17:50:06.415Z,17.93
2018-03-28T17:52:36.230Z,18.00
2018-03-28T17:55:06.132Z,20.23
2018-03-28T17:57:35.960Z,19.00
2018-03-28T18:00:05.865Z,16.80
2018-03-28T18:02:35.776Z,16.53
2018-03-28T18:05:05.693Z,15.53
2018-03-28T18:07:36.115Z,15.47
2018-03-28T18:10:06.148Z,18.97
2018-03-28T18:12:35.946Z,16.20
2018-03-28T18:15:05.869Z,17.97
2018-03-28T18:17:35.680Z,20.53
2018-03-28T18:20:05.590Z,18.40
2018-03-28T18:22:35.408Z,23.73
2018-03-28T18:25:05.117Z,18.67
2018-03-28T18:27:35.029Z,19.57
2018-03-28T18:30:04.841Z,18.10
2018-03-28T18:32:35.574Z,20.40
2018-03-28T18:35:05.491Z,20.30
2018-03-28T18:37:35.308Z,20.83
2018-03-28T18:40:05.219Z,21.27
2018-03-28T18:42:35.027Z,20.77
2018-03-28T18:45:04.808Z,20.20
2018-03-28T18:47:34.657Z,18.67
2018-03-28T18:50:04.650Z,24.77
2018-03-28T18:52:34.462Z,24.03
2018-03-28T18:55:04.313Z,23.07
2018-03-28T18:57:34.112Z,21.37
2018-03-28T19:00:04.225Z,20.47
2018-03-28T19:02:34.048Z,24.90
2018-03-28T19:05:03.961Z,22.47
2018-03-28T19:07:33.987Z,24.47
2018-03-28T19:10:03.902Z,23.33
2018-03-28T19:12:33.773Z,30.30
2018-03-28T19:15:03.625Z,33.40
2018-03-28T19:17:33.426Z,23.10
2018-03-28T19:20:03.249Z,33.10
2018-03-28T19:22:33.063Z,33.13
2018-03-28T19:25:03.686Z,31.93
2018-03-28T19:27:33.523Z,32.17
2018-03-28T19:30:03.532Z,31.67
2018-03-28T19:32:33.527Z,28.10
2018-03-28T19:35:03.451Z,29.47
2018-03-28T19:37:33.259Z,28.83
2018-03-28T19:40:03.183Z,25.00
2018-03-28T19:42:32.986Z,23.53
2018-03-28T19:45:03.008Z,18.07
2018-03-28T19:47:32.765Z,24.93
2018-03-28T19:50:02.639Z,24.23
2018-03-28T19:52:32.448Z,24.97
2018-03-28T19:55:02.464Z,25.03
2018-03-28T19:57:32.387Z,23.07
2018-03-28T20:00:02.205Z,28.13
2018-03-28T20:02:32.203Z,26.00
2018-03-28T20:05:08.675Z,24.17
2018-03-28T20:07:38.586Z,25.43
2018-03-28T20:10:08.407Z,29.40
2018-03-28T20:12:38.319Z,26.70
2018-03-28T20:15:08.147Z,23.47
2018-03-28T20:17:38.040Z,26.30
2018-03-28T20:20:07.869Z,24.30
2018-03-28T20:22:37.665Z,23.10
2018-03-28T20:25:07.656Z,185.90
2018-03-28T20:27:37.513Z,19.27
2018-03-28T20:30:08.126Z,22.20
2018-03-28T20:32:38.050Z,27.97
2018-03-28T20:35:08.058Z,25.43
2018-03-28T20:37:37.870Z,72.53
2018-03-28T20:40:07.687Z,59.63
2018-03-28T20:42:37.599Z,88.43
2018-03-28T20:45:07.516Z,48.97
2018-03-28T20:47:37.310Z,37.70
2018-03-28T20:50:07.055Z,35.33
2018-03-28T20:52:36.964Z,29.87
2018-03-28T20:55:06.795Z,29.13
2018-03-28T20:57:36.601Z,28.13
2018-03-28T21:00:06.389Z,34.90
2018-03-28T21:02:36.314Z,30.40
2018-03-28T21:05:06.224Z,31.43
2018-03-28T21:07:36.039Z,30.63
2018-03-28T21:10:05.947Z,25.43
2018-03-28T21:12:35.762Z,25.17
2018-03-28T21:15:05.573Z,31.53
2018-03-28T21:17:35.393Z,27.17
2018-03-28T21:20:05.194Z,30.53
2018-03-28T21:22:35.144Z,25.63
2018-03-28T21:25:05.027Z,52.63
2018-03-28T21:27:34.810Z,141.33
2018-03-28T21:30:04.595Z,29.30
2018-03-28T21:32:34.538Z,37.30
2018-03-28T21:35:04.353Z,49.63
2018-03-28T21:37:34.065Z,41.43
2018-03-28T21:40:04.041Z,46.03
2018-03-28T21:42:33.859Z,38.20
2018-03-28T21:45:04.558Z,35.73
2018-03-28T21:47:34.331Z,37.53
2018-03-28T21:50:04.279Z,34.50
2018-03-28T21:52:34.173Z,37.13
2018-03-28T21:55:03.996Z,38.10
2018-03-28T21:57:33.819Z,34.23
2018-03-28T22:00:03.633Z,26.93
2018-03-28T22:02:33.430Z,31.60
2018-03-28T22:05:03.170Z,30.97
2018-03-28T22:07:32.900Z,34.93
2018-03-28T22:10:02.626Z,35.23
2018-03-28T22:12:32.345Z,34.47
2018-03-28T22:15:02.112Z,30.77
2018-03-28T22:17:31.908Z,36.27
2018-03-28T22:20:01.646Z,35.53
2018-03-28T22:22:31.422Z,31.97
2018-03-28T22:25:01.121Z,32.70
2018-03-28T22:27:30.959Z,31.87
2018-03-28T22:30:00.682Z,31.47
2018-03-28T22:32:30.483Z,31.93
2018-03-28T22:35:00.279Z,35.27
2018-03-28T22:37:30.014Z,32.53
2018-03-28T22:39:59.753Z,31.00
2018-03-28T22:42:29.544Z,30.00
2018-03-28T22:44:59.360Z,70.50
2018-03-28T22:47:29.065Z,39.47
2018-03-28T22:49:58.760Z,32.03
2018-03-28T22:52:28.633Z,35.27
2018-03-28T22:54:58.341Z,33.13
2018-03-28T22:57:28.103Z,55.63
2018-03-28T22:59:57.822Z,34.20
2018-03-28T23:02:27.587Z,30.20
2018-03-28T23:04:57.382Z,30.00
2018-03-28T23:07:27.097Z,30.10
2018-03-28T23:09:56.790Z,29.73
2018-03-28T23:12:26.631Z,80.50
2018-03-28T23:14:56.384Z,84.90
2018-03-28T23:17:26.191Z,81.00
2018-03-28T23:19:55.998Z,106.87
2018-03-28T23:22:39.058Z,109.43
2018-03-28T23:25:08.849Z,83.53
2018-03-28T23:27:38.590Z,44.90
2018-03-28T23:30:08.306Z,69.67
2018-03-28T23:32:38.121Z,50.57
2018-03-28T23:35:07.960Z,35.77
2018-03-28T23:37:37.648Z,41.30
2018-03-28T23:40:07.504Z,41.67
2018-03-28T23:42:37.233Z,47.73
2018-03-28T23:45:07.039Z,51.23
2018-03-28T23:47:38.302Z,46.10
2018-03-28T23:50:08.017Z,40.33
2018-03-28T23:52:37.767Z,35.47
2018-03-28T23:55:07.465Z,37.73
2018-03-28T23:57:37.184Z,42.30
